WJA1591 KATL-CYYC
Flight info
| Callsign | WJA1591 |
|---|---|
| Flight time | 4h 18m |
| Altitude | 36000 |
| Route | PENCL2 JAACE DCT HITMN Q19 DSM J45 FSD DCT GGW DCT BEVEL DCT VESDO EBGAL7 |
| Aircraft | B38M/M-SDE1FGHILORVWXY/HB1 |
Departure
| Time | 2026-05-04 18:38 |
|---|---|
| Airport | Hartsfield Jackson Atlanta International Airport (KATL) |
Arrival
| Time | 2026-05-04 22:56 |
|---|---|
| Airport | Calgary International Airport (CYYC) |
| Time | Latitude | Longitude | Altitude | Speed | Heading |
|---|---|---|---|---|---|
| 2026-05-04 18:12 | 33.63926 | -84.42877 | 1013 ft | 0 kts | 293° |
| 2026-05-04 18:27 | 33.63916 | -84.42850 | 1013 ft | 4 kts | 294° |
| 2026-05-04 18:27 | 33.63905 | -84.42823 | 1012 ft | 3 kts | 305° |
| 2026-05-04 18:28 | 33.63891 | -84.42809 | 1012 ft | 3 kts | 342° |
| 2026-05-04 18:28 | 33.63878 | -84.42806 | 1012 ft | 2 kts | 357° |
| 2026-05-04 18:28 | 33.63871 | -84.42806 | 1012 ft | 0 kts | 359° |
| 2026-05-04 18:32 | 33.63878 | -84.42806 | 1012 ft | 3 kts | 359° |
| 2026-05-04 18:32 | 33.63930 | -84.42810 | 1012 ft | 12 kts | 356° |
| 2026-05-04 18:33 | 33.64036 | -84.42806 | 1013 ft | 19 kts | 355° |
| 2026-05-04 18:33 | 33.64192 | -84.42806 | 1018 ft | 25 kts | 0° |
| 2026-05-04 18:33 | 33.64364 | -84.42806 | 1022 ft | 24 kts | 0° |
| 2026-05-04 18:33 | 33.64466 | -84.42724 | 1023 ft | 20 kts | 82° |
| 2026-05-04 18:34 | 33.64469 | -84.42545 | 1018 ft | 23 kts | 90° |
| 2026-05-04 18:34 | 33.64469 | -84.42341 | 1013 ft | 26 kts | 89° |
| 2026-05-04 18:34 | 33.64519 | -84.42160 | 1015 ft | 23 kts | 59° |
| 2026-05-04 18:34 | 33.64542 | -84.41973 | 1015 ft | 24 kts | 89° |
| 2026-05-04 18:35 | 33.64542 | -84.41776 | 1016 ft | 24 kts | 90° |
| 2026-05-04 18:35 | 33.64542 | -84.41579 | 1018 ft | 24 kts | 91° |
| 2026-05-04 18:35 | 33.64543 | -84.41375 | 1016 ft | 25 kts | 90° |
| 2026-05-04 18:35 | 33.64543 | -84.41158 | 1014 ft | 27 kts | 90° |
| 2026-05-04 18:36 | 33.64543 | -84.40924 | 1007 ft | 30 kts | 90° |
| 2026-05-04 18:36 | 33.64570 | -84.40703 | 1004 ft | 26 kts | 90° |
| 2026-05-04 18:36 | 33.64624 | -84.40575 | 1002 ft | 18 kts | 2° |
| 2026-05-04 18:36 | 33.64679 | -84.40653 | 1002 ft | 8 kts | 267° |
| 2026-05-04 18:37 | 33.64679 | -84.40664 | 1002 ft | 0 kts | 269° |
| 2026-05-04 18:37 | 33.64679 | -84.40665 | 1002 ft | 1 kts | 270° |
| 2026-05-04 18:37 | 33.64680 | -84.40764 | 1005 ft | 36 kts | 270° |
| 2026-05-04 18:37 | 33.64679 | -84.41354 | 1018 ft | 103 kts | 270° |
| 2026-05-04 18:38 | 33.64679 | -84.42459 | 1021 ft | 159 kts | 270° |
| 2026-05-04 18:38 | 33.64673 | -84.43896 | 1317 ft | 181 kts | 269° |
| 2026-05-04 18:38 | 33.64672 | -84.45464 | 1954 ft | 192 kts | 269° |
| 2026-05-04 18:38 | 33.64706 | -84.47069 | 2816 ft | 193 kts | 279° |
| 2026-05-04 18:39 | 33.65108 | -84.48655 | 3443 ft | 205 kts | 289° |
| 2026-05-04 18:39 | 33.65484 | -84.49720 | 3928 ft | 213 kts | 296° |
| 2026-05-04 18:39 | 33.66236 | -84.51301 | 4690 ft | 224 kts | 300° |
| 2026-05-04 18:39 | 33.67048 | -84.52981 | 5333 ft | 240 kts | 299° |
| 2026-05-04 18:40 | 33.67876 | -84.54760 | 6108 ft | 245 kts | 298° |
| 2026-05-04 18:40 | 33.68776 | -84.56560 | 6806 ft | 256 kts | 303° |
| 2026-05-04 18:40 | 33.69996 | -84.58176 | 7482 ft | 267 kts | 326° |
| 2026-05-04 18:40 | 33.71757 | -84.58912 | 8260 ft | 274 kts | 357° |
| 2026-05-04 18:41 | 33.73628 | -84.58781 | 9191 ft | 270 kts | 8° |
| 2026-05-04 18:41 | 33.75495 | -84.58496 | 10060 ft | 272 kts | 7° |
| 2026-05-04 18:41 | 33.77408 | -84.58292 | 10603 ft | 284 kts | 2° |
| 2026-05-04 18:41 | 33.79456 | -84.58184 | 11007 ft | 301 kts | 1° |
| 2026-05-04 18:42 | 33.81570 | -84.58128 | 11489 ft | 315 kts | 359° |
| 2026-05-04 18:42 | 33.83842 | -84.58123 | 11830 ft | 334 kts | 357° |
| 2026-05-04 18:42 | 33.86162 | -84.58576 | 12131 ft | 348 kts | 342° |
| 2026-05-04 18:42 | 33.88543 | -84.59358 | 12573 ft | 361 kts | 343° |
| 2026-05-04 18:43 | 33.91001 | -84.60150 | 13285 ft | 364 kts | 343° |
| 2026-05-04 18:43 | 33.93439 | -84.60936 | 14065 ft | 365 kts | 342° |
| 2026-05-04 18:43 | 33.95896 | -84.61729 | 14752 ft | 368 kts | 342° |
| 2026-05-04 18:43 | 33.98393 | -84.62535 | 15432 ft | 371 kts | 342° |
| 2026-05-04 18:44 | 34.00890 | -84.63342 | 16081 ft | 374 kts | 342° |
| 2026-05-04 18:44 | 34.02579 | -84.63888 | 16526 ft | 376 kts | 342° |
| 2026-05-04 18:44 | 34.05972 | -84.64986 | 17379 ft | 380 kts | 342° |
| 2026-05-04 18:44 | 34.08517 | -84.65809 | 18024 ft | 383 kts | 341° |
| 2026-05-04 18:45 | 34.11127 | -84.66654 | 18613 ft | 386 kts | 341° |
| 2026-05-04 18:45 | 34.13704 | -84.67490 | 19136 ft | 389 kts | 341° |
| 2026-05-04 18:45 | 34.16343 | -84.68345 | 19667 ft | 391 kts | 341° |
| 2026-05-04 18:45 | 34.18973 | -84.69199 | 20190 ft | 394 kts | 341° |
| 2026-05-04 18:46 | 34.21638 | -84.70064 | 20709 ft | 397 kts | 341° |
| 2026-05-04 18:46 | 34.24318 | -84.70935 | 21223 ft | 399 kts | 341° |
| 2026-05-04 18:46 | 34.26928 | -84.71977 | 21690 ft | 400 kts | 336° |
| 2026-05-04 18:46 | 34.29558 | -84.73117 | 22197 ft | 402 kts | 336° |
| 2026-05-04 18:47 | 34.32217 | -84.74251 | 22695 ft | 405 kts | 336° |
| 2026-05-04 18:47 | 34.34896 | -84.75385 | 23186 ft | 408 kts | 336° |
| 2026-05-04 18:47 | 34.37593 | -84.76523 | 23688 ft | 410 kts | 336° |
| 2026-05-04 18:47 | 34.40299 | -84.77665 | 24080 ft | 413 kts | 336° |
| 2026-05-04 18:48 | 34.43025 | -84.78815 | 24467 ft | 415 kts | 336° |
| 2026-05-04 18:48 | 34.45724 | -84.79955 | 24882 ft | 417 kts | 336° |
| 2026-05-04 18:48 | 34.48466 | -84.81114 | 25279 ft | 419 kts | 336° |
| 2026-05-04 18:48 | 34.51229 | -84.82283 | 25659 ft | 421 kts | 336° |
| 2026-05-04 18:49 | 34.54003 | -84.83457 | 26038 ft | 423 kts | 336° |
| 2026-05-04 18:49 | 34.56793 | -84.84638 | 26410 ft | 425 kts | 336° |
| 2026-05-04 18:49 | 34.59591 | -84.85824 | 26783 ft | 427 kts | 336° |
| 2026-05-04 18:49 | 34.62415 | -84.87022 | 27142 ft | 430 kts | 336° |
| 2026-05-04 18:50 | 34.65244 | -84.88222 | 27511 ft | 431 kts | 336° |
| 2026-05-04 18:50 | 34.68087 | -84.89431 | 27861 ft | 433 kts | 336° |
| 2026-05-04 18:50 | 34.70937 | -84.90642 | 28207 ft | 435 kts | 336° |
| 2026-05-04 18:50 | 34.73774 | -84.91848 | 28533 ft | 437 kts | 336° |
| 2026-05-04 18:51 | 34.76656 | -84.93075 | 28881 ft | 439 kts | 336° |
| 2026-05-04 18:51 | 34.79545 | -84.94306 | 29204 ft | 441 kts | 336° |
| 2026-05-04 18:51 | 34.82467 | -84.95552 | 29536 ft | 443 kts | 336° |
| 2026-05-04 18:51 | 34.85350 | -84.96782 | 29853 ft | 445 kts | 336° |
| 2026-05-04 18:52 | 34.88281 | -84.98033 | 30237 ft | 444 kts | 336° |
| 2026-05-04 18:52 | 34.91205 | -84.99283 | 30622 ft | 443 kts | 336° |
| 2026-05-04 18:52 | 34.94079 | -85.00512 | 30981 ft | 442 kts | 336° |
| 2026-05-04 18:52 | 34.96987 | -85.01756 | 31352 ft | 441 kts | 336° |
| 2026-05-04 18:53 | 34.99879 | -85.02995 | 31720 ft | 440 kts | 336° |
| 2026-05-04 18:53 | 35.02773 | -85.04236 | 32067 ft | 440 kts | 335° |
| 2026-05-04 18:53 | 35.05665 | -85.05476 | 32434 ft | 439 kts | 335° |
| 2026-05-04 18:53 | 35.08540 | -85.06724 | 32772 ft | 437 kts | 333° |
| 2026-05-04 18:54 | 35.11147 | -85.08529 | 33106 ft | 425 kts | 316° |
| 2026-05-04 18:54 | 35.13214 | -85.11066 | 33436 ft | 419 kts | 307° |
| 2026-05-04 18:54 | 35.15094 | -85.13744 | 33689 ft | 420 kts | 307° |
| 2026-05-04 18:54 | 35.16961 | -85.16501 | 33971 ft | 420 kts | 306° |
| 2026-05-04 18:55 | 35.18798 | -85.19268 | 34277 ft | 419 kts | 306° |
| 2026-05-04 18:55 | 35.22422 | -85.24817 | 34807 ft | 418 kts | 305° |
| 2026-05-04 18:55 | 35.24235 | -85.27612 | 35068 ft | 417 kts | 305° |
| 2026-05-04 18:56 | 35.26034 | -85.30389 | 35354 ft | 416 kts | 305° |
| 2026-05-04 18:56 | 35.27831 | -85.33168 | 35625 ft | 415 kts | 305° |
| 2026-05-04 18:56 | 35.29621 | -85.35938 | 35886 ft | 414 kts | 305° |
| 2026-05-04 18:56 | 35.31406 | -85.38703 | 36042 ft | 414 kts | 305° |
| 2026-05-04 18:57 | 35.34957 | -85.44207 | 36029 ft | 411 kts | 305° |
| 2026-05-04 18:57 | 35.38508 | -85.49722 | 36028 ft | 412 kts | 305° |
| 2026-05-04 18:58 | 35.42037 | -85.55210 | 36041 ft | 412 kts | 305° |
| 2026-05-04 18:58 | 35.45586 | -85.60739 | 36031 ft | 412 kts | 305° |
| 2026-05-04 18:59 | 35.49119 | -85.66252 | 36021 ft | 412 kts | 305° |
| 2026-05-04 18:59 | 35.52665 | -85.71793 | 36019 ft | 413 kts | 305° |
| 2026-05-04 19:00 | 35.56225 | -85.77362 | 36015 ft | 413 kts | 305° |
| 2026-05-04 19:00 | 35.59753 | -85.82889 | 36017 ft | 412 kts | 305° |
| 2026-05-04 19:01 | 35.63281 | -85.88423 | 36007 ft | 412 kts | 305° |
| 2026-05-04 19:01 | 35.66824 | -85.93991 | 36009 ft | 412 kts | 305° |
| 2026-05-04 19:02 | 35.70346 | -85.99535 | 36010 ft | 412 kts | 305° |
| 2026-05-04 19:02 | 35.73867 | -86.05085 | 36013 ft | 412 kts | 305° |
| 2026-05-04 19:03 | 35.77406 | -86.10674 | 36013 ft | 412 kts | 305° |
| 2026-05-04 19:03 | 35.80917 | -86.16227 | 35985 ft | 412 kts | 305° |
| 2026-05-04 19:04 | 35.84426 | -86.21785 | 35969 ft | 412 kts | 305° |
| 2026-05-04 19:04 | 35.87948 | -86.27374 | 35972 ft | 412 kts | 305° |
| 2026-05-04 19:05 | 35.91462 | -86.32958 | 35981 ft | 412 kts | 305° |
| 2026-05-04 19:05 | 35.94958 | -86.38522 | 35978 ft | 412 kts | 305° |
| 2026-05-04 19:06 | 35.98473 | -86.44127 | 35994 ft | 412 kts | 305° |
| 2026-05-04 19:06 | 36.01972 | -86.49716 | 35992 ft | 412 kts | 305° |
| 2026-05-04 19:07 | 36.05463 | -86.55299 | 35991 ft | 412 kts | 305° |
| 2026-05-04 19:07 | 36.08959 | -86.60899 | 35980 ft | 412 kts | 305° |
| 2026-05-04 19:08 | 36.12471 | -86.66533 | 35986 ft | 411 kts | 305° |
| 2026-05-04 19:08 | 36.16328 | -86.71780 | 35986 ft | 414 kts | 310° |
| 2026-05-04 19:09 | 36.20287 | -86.76963 | 35942 ft | 413 kts | 310° |
| 2026-05-04 19:09 | 36.24206 | -86.82149 | 35951 ft | 413 kts | 310° |
| 2026-05-04 19:10 | 36.28118 | -86.87342 | 35950 ft | 413 kts | 310° |
| 2026-05-04 19:10 | 36.32019 | -86.92528 | 35935 ft | 413 kts | 310° |
| 2026-05-04 19:11 | 36.35956 | -86.97771 | 35944 ft | 413 kts | 310° |
| 2026-05-04 19:11 | 36.39858 | -87.02975 | 35951 ft | 412 kts | 310° |
| 2026-05-04 19:12 | 36.45703 | -87.10786 | 35936 ft | 412 kts | 310° |
| 2026-05-04 19:13 | 36.49589 | -87.15990 | 35939 ft | 412 kts | 310° |
| 2026-05-04 19:13 | 36.53505 | -87.21242 | 35935 ft | 412 kts | 310° |
| 2026-05-04 19:14 | 36.57394 | -87.26466 | 35934 ft | 412 kts | 310° |
| 2026-05-04 19:14 | 36.61271 | -87.31676 | 35938 ft | 412 kts | 310° |
| 2026-05-04 19:15 | 36.65165 | -87.36905 | 35936 ft | 411 kts | 310° |
| 2026-05-04 19:15 | 36.69059 | -87.42140 | 35916 ft | 411 kts | 310° |
| 2026-05-04 19:16 | 36.72951 | -87.47383 | 35917 ft | 411 kts | 310° |
| 2026-05-04 19:16 | 36.76813 | -87.52592 | 35919 ft | 411 kts | 309° |
| 2026-05-04 19:17 | 36.80690 | -87.57831 | 35925 ft | 411 kts | 310° |
| 2026-05-04 19:17 | 36.84573 | -87.63086 | 35922 ft | 411 kts | 309° |
| 2026-05-04 19:18 | 36.88450 | -87.68342 | 35917 ft | 411 kts | 309° |
| 2026-05-04 19:18 | 36.92300 | -87.73568 | 35912 ft | 411 kts | 309° |
| 2026-05-04 19:19 | 36.96173 | -87.78836 | 35903 ft | 411 kts | 309° |
| 2026-05-04 19:19 | 37.00040 | -87.84102 | 35892 ft | 411 kts | 309° |
| 2026-05-04 19:20 | 37.03880 | -87.89340 | 35888 ft | 410 kts | 309° |
| 2026-05-04 19:20 | 37.07738 | -87.94613 | 35886 ft | 410 kts | 309° |
| 2026-05-04 19:21 | 37.11596 | -87.99894 | 35889 ft | 410 kts | 309° |
| 2026-05-04 19:21 | 37.15451 | -88.05179 | 35887 ft | 410 kts | 309° |
| 2026-05-04 19:22 | 37.19285 | -88.10444 | 35889 ft | 410 kts | 309° |
| 2026-05-04 19:22 | 37.23113 | -88.15708 | 35891 ft | 410 kts | 309° |
| 2026-05-04 19:23 | 37.26959 | -88.21005 | 35891 ft | 410 kts | 309° |
| 2026-05-04 19:23 | 37.30794 | -88.26298 | 35879 ft | 409 kts | 309° |
| 2026-05-04 19:24 | 37.34633 | -88.31606 | 35878 ft | 409 kts | 309° |
| 2026-05-04 19:24 | 37.38437 | -88.36872 | 35874 ft | 409 kts | 309° |
| 2026-05-04 19:25 | 37.42268 | -88.42185 | 35868 ft | 409 kts | 309° |
| 2026-05-04 19:25 | 37.46096 | -88.47501 | 35867 ft | 409 kts | 309° |
| 2026-05-04 19:26 | 37.49910 | -88.52808 | 35862 ft | 408 kts | 309° |
| 2026-05-04 19:26 | 37.53697 | -88.58086 | 35852 ft | 408 kts | 309° |
| 2026-05-04 19:27 | 37.57499 | -88.63392 | 35851 ft | 408 kts | 309° |
| 2026-05-04 19:27 | 37.61300 | -88.68707 | 35854 ft | 408 kts | 309° |
| 2026-05-04 19:28 | 37.64466 | -88.73138 | 35847 ft | 408 kts | 309° |
| 2026-05-04 19:28 | 37.68263 | -88.78461 | 35846 ft | 408 kts | 309° |
| 2026-05-04 19:29 | 37.72056 | -88.83785 | 35846 ft | 407 kts | 309° |
| 2026-05-04 19:29 | 37.75827 | -88.89090 | 35844 ft | 407 kts | 309° |
| 2026-05-04 19:30 | 37.79624 | -88.94438 | 35843 ft | 407 kts | 309° |
| 2026-05-04 19:30 | 37.83402 | -88.99772 | 35843 ft | 407 kts | 309° |
| 2026-05-04 19:31 | 37.87184 | -89.05120 | 35846 ft | 407 kts | 309° |
| 2026-05-04 19:31 | 37.90957 | -89.10464 | 35837 ft | 407 kts | 309° |
| 2026-05-04 19:32 | 37.94714 | -89.15794 | 35834 ft | 407 kts | 309° |
| 2026-05-04 19:32 | 37.98484 | -89.21152 | 35824 ft | 407 kts | 309° |
| 2026-05-04 19:33 | 38.02260 | -89.26529 | 35823 ft | 407 kts | 309° |
| 2026-05-04 19:33 | 38.06027 | -89.31900 | 35823 ft | 407 kts | 309° |
| 2026-05-04 19:34 | 38.09774 | -89.37252 | 35812 ft | 407 kts | 309° |
| 2026-05-04 19:34 | 38.13537 | -89.42635 | 35803 ft | 407 kts | 309° |
| 2026-05-04 19:35 | 38.17299 | -89.48027 | 35797 ft | 407 kts | 309° |
| 2026-05-04 19:35 | 38.21061 | -89.53428 | 35807 ft | 407 kts | 309° |
| 2026-05-04 19:36 | 38.24797 | -89.58801 | 35795 ft | 407 kts | 309° |
| 2026-05-04 19:36 | 38.28552 | -89.64209 | 35791 ft | 407 kts | 309° |
| 2026-05-04 19:37 | 38.32300 | -89.69618 | 35791 ft | 407 kts | 309° |
| 2026-05-04 19:37 | 38.36023 | -89.74999 | 35795 ft | 407 kts | 309° |
| 2026-05-04 19:38 | 38.39768 | -89.80421 | 35791 ft | 407 kts | 309° |
| 2026-05-04 19:38 | 38.43511 | -89.85849 | 35796 ft | 407 kts | 309° |
| 2026-05-04 19:39 | 38.47225 | -89.91244 | 35796 ft | 407 kts | 308° |
| 2026-05-04 19:39 | 38.50977 | -89.96703 | 35795 ft | 408 kts | 308° |
| 2026-05-04 19:40 | 38.54702 | -90.02134 | 35777 ft | 408 kts | 308° |
| 2026-05-04 19:40 | 38.58450 | -90.07607 | 35779 ft | 409 kts | 308° |
| 2026-05-04 19:41 | 38.62209 | -90.13104 | 35774 ft | 410 kts | 309° |
| 2026-05-04 19:41 | 38.65964 | -90.18608 | 35775 ft | 411 kts | 309° |
| 2026-05-04 19:42 | 38.69727 | -90.24131 | 35784 ft | 411 kts | 309° |
| 2026-05-04 19:42 | 38.73469 | -90.29632 | 35785 ft | 412 kts | 309° |
| 2026-05-04 19:43 | 38.77235 | -90.35179 | 35789 ft | 412 kts | 309° |
| 2026-05-04 19:43 | 38.81004 | -90.40737 | 35788 ft | 412 kts | 309° |
| 2026-05-04 19:44 | 38.84741 | -90.46258 | 35731 ft | 413 kts | 309° |
| 2026-05-04 19:44 | 38.88848 | -90.51443 | 35736 ft | 415 kts | 314° |
| 2026-05-04 19:45 | 38.93114 | -90.56443 | 35733 ft | 415 kts | 315° |
| 2026-05-04 19:45 | 38.97381 | -90.61434 | 35725 ft | 415 kts | 315° |
| 2026-05-04 19:46 | 39.01641 | -90.66421 | 35724 ft | 415 kts | 315° |
| 2026-05-04 19:46 | 39.05913 | -90.71430 | 35717 ft | 415 kts | 315° |
| 2026-05-04 19:47 | 39.10194 | -90.76459 | 35706 ft | 416 kts | 315° |
| 2026-05-04 19:47 | 39.14438 | -90.81453 | 35702 ft | 416 kts | 315° |
| 2026-05-04 19:48 | 39.18707 | -90.86486 | 35698 ft | 416 kts | 315° |
| 2026-05-04 19:48 | 39.22977 | -90.91528 | 35693 ft | 416 kts | 314° |
| 2026-05-04 19:49 | 39.27223 | -90.96549 | 35686 ft | 416 kts | 314° |
| 2026-05-04 19:49 | 39.31490 | -91.01605 | 35689 ft | 416 kts | 314° |
| 2026-05-04 19:50 | 39.35763 | -91.06678 | 35745 ft | 416 kts | 314° |
| 2026-05-04 19:50 | 39.40021 | -91.11740 | 35790 ft | 416 kts | 314° |
| 2026-05-04 19:51 | 39.44258 | -91.16786 | 35837 ft | 416 kts | 314° |
| 2026-05-04 19:51 | 39.48520 | -91.21871 | 35866 ft | 416 kts | 314° |
| 2026-05-04 19:52 | 39.52776 | -91.26958 | 35882 ft | 416 kts | 314° |
| 2026-05-04 19:52 | 39.57036 | -91.32059 | 35705 ft | 416 kts | 314° |
| 2026-05-04 19:53 | 39.61288 | -91.37157 | 35712 ft | 416 kts | 314° |
| 2026-05-04 19:53 | 39.65513 | -91.42232 | 35713 ft | 416 kts | 314° |
| 2026-05-04 19:54 | 39.69763 | -91.47346 | 35713 ft | 415 kts | 314° |
| 2026-05-04 19:54 | 39.74001 | -91.52453 | 35714 ft | 415 kts | 314° |
| 2026-05-04 19:55 | 39.78233 | -91.57561 | 35711 ft | 415 kts | 314° |
| 2026-05-04 19:55 | 39.82462 | -91.62675 | 35706 ft | 414 kts | 314° |
| 2026-05-04 19:56 | 39.86683 | -91.67787 | 35698 ft | 414 kts | 314° |
| 2026-05-04 19:56 | 39.90871 | -91.72869 | 35689 ft | 413 kts | 314° |
| 2026-05-04 19:57 | 39.95077 | -91.77981 | 35680 ft | 413 kts | 314° |
| 2026-05-04 19:57 | 39.99278 | -91.83096 | 35679 ft | 413 kts | 314° |
| 2026-05-04 19:58 | 40.03476 | -91.88218 | 35668 ft | 413 kts | 314° |
| 2026-05-04 19:58 | 40.07676 | -91.93350 | 35678 ft | 413 kts | 314° |
| 2026-05-04 19:59 | 40.11840 | -91.98447 | 35677 ft | 413 kts | 314° |
| 2026-05-04 19:59 | 40.16032 | -92.03587 | 35680 ft | 412 kts | 314° |
| 2026-05-04 20:00 | 40.20212 | -92.08723 | 35674 ft | 412 kts | 314° |
| 2026-05-04 20:00 | 40.24393 | -92.13867 | 35672 ft | 412 kts | 314° |
| 2026-05-04 20:01 | 40.28571 | -92.19019 | 35671 ft | 412 kts | 313° |
| 2026-05-04 20:01 | 40.32717 | -92.24142 | 35671 ft | 412 kts | 313° |
| 2026-05-04 20:02 | 40.36884 | -92.29301 | 35666 ft | 412 kts | 313° |
| 2026-05-04 20:02 | 40.41054 | -92.34472 | 35660 ft | 412 kts | 313° |
| 2026-05-04 20:03 | 40.45223 | -92.39650 | 35660 ft | 412 kts | 313° |
| 2026-05-04 20:03 | 40.49356 | -92.44794 | 35655 ft | 412 kts | 313° |
| 2026-05-04 20:04 | 40.53524 | -92.49991 | 35654 ft | 411 kts | 313° |
| 2026-05-04 20:04 | 40.57679 | -92.55178 | 35659 ft | 411 kts | 313° |
| 2026-05-04 20:05 | 40.61793 | -92.60326 | 35661 ft | 411 kts | 313° |
| 2026-05-04 20:05 | 40.65935 | -92.65520 | 35669 ft | 411 kts | 313° |
| 2026-05-04 20:06 | 40.70083 | -92.70727 | 35670 ft | 411 kts | 313° |
| 2026-05-04 20:06 | 40.74204 | -92.75912 | 35673 ft | 411 kts | 313° |
| 2026-05-04 20:07 | 40.78341 | -92.81126 | 35671 ft | 410 kts | 313° |
| 2026-05-04 20:07 | 40.82443 | -92.86304 | 35668 ft | 410 kts | 313° |
| 2026-05-04 20:08 | 40.86575 | -92.91531 | 35658 ft | 410 kts | 313° |
| 2026-05-04 20:08 | 40.90699 | -92.96756 | 35650 ft | 410 kts | 313° |
| 2026-05-04 20:09 | 40.94784 | -93.01942 | 35640 ft | 410 kts | 313° |
| 2026-05-04 20:09 | 40.98892 | -93.07166 | 35640 ft | 410 kts | 313° |
| 2026-05-04 20:10 | 41.03005 | -93.12405 | 35642 ft | 410 kts | 312° |
| 2026-05-04 20:10 | 41.07118 | -93.17656 | 35643 ft | 410 kts | 312° |
| 2026-05-04 20:11 | 41.11202 | -93.22878 | 35646 ft | 410 kts | 312° |
| 2026-05-04 20:11 | 41.15313 | -93.28144 | 35643 ft | 410 kts | 312° |
| 2026-05-04 20:12 | 41.19416 | -93.33410 | 35640 ft | 410 kts | 312° |
| 2026-05-04 20:12 | 41.23498 | -93.38658 | 35630 ft | 410 kts | 312° |
| 2026-05-04 20:13 | 41.27596 | -93.43936 | 35628 ft | 410 kts | 312° |
| 2026-05-04 20:13 | 41.31690 | -93.49220 | 35632 ft | 410 kts | 312° |
| 2026-05-04 20:14 | 41.35781 | -93.54509 | 35636 ft | 410 kts | 312° |
| 2026-05-04 20:14 | 41.39846 | -93.59772 | 35639 ft | 410 kts | 311° |
| 2026-05-04 20:15 | 41.43920 | -93.65091 | 35648 ft | 409 kts | 311° |
| 2026-05-04 20:15 | 41.47929 | -93.70493 | 35648 ft | 409 kts | 311° |
| 2026-05-04 20:16 | 41.51916 | -93.75857 | 35649 ft | 409 kts | 310° |
| 2026-05-04 20:16 | 41.55931 | -93.81267 | 35644 ft | 409 kts | 310° |
| 2026-05-04 20:17 | 41.59258 | -93.85758 | 35646 ft | 409 kts | 310° |
| 2026-05-04 20:17 | 41.63263 | -93.91172 | 35639 ft | 409 kts | 310° |
| 2026-05-04 20:18 | 41.67269 | -93.96598 | 35632 ft | 409 kts | 310° |
| 2026-05-04 20:18 | 41.71250 | -94.02001 | 35635 ft | 409 kts | 310° |
| 2026-05-04 20:19 | 41.75254 | -94.07445 | 35634 ft | 409 kts | 310° |
| 2026-05-04 20:19 | 41.79254 | -94.12895 | 35636 ft | 409 kts | 310° |
| 2026-05-04 20:20 | 41.83225 | -94.18314 | 35644 ft | 409 kts | 310° |
| 2026-05-04 20:20 | 41.87217 | -94.23774 | 35638 ft | 409 kts | 310° |
| 2026-05-04 20:21 | 41.91207 | -94.29239 | 35637 ft | 409 kts | 310° |
| 2026-05-04 20:21 | 41.97167 | -94.37424 | 35646 ft | 409 kts | 310° |
| 2026-05-04 20:22 | 42.01124 | -94.42870 | 35675 ft | 409 kts | 310° |
| 2026-05-04 20:22 | 42.05098 | -94.48352 | 35678 ft | 409 kts | 310° |
| 2026-05-04 20:23 | 42.09069 | -94.53839 | 35677 ft | 408 kts | 310° |
| 2026-05-04 20:23 | 42.13034 | -94.59327 | 35680 ft | 408 kts | 310° |
| 2026-05-04 20:24 | 42.16972 | -94.64790 | 35690 ft | 408 kts | 309° |
| 2026-05-04 20:24 | 42.20924 | -94.70282 | 35687 ft | 407 kts | 309° |
| 2026-05-04 20:25 | 42.24871 | -94.75777 | 35686 ft | 407 kts | 309° |
| 2026-05-04 20:25 | 42.28789 | -94.81244 | 35687 ft | 407 kts | 309° |
| 2026-05-04 20:26 | 42.32727 | -94.86746 | 35693 ft | 407 kts | 309° |
| 2026-05-04 20:26 | 42.36641 | -94.92227 | 35696 ft | 406 kts | 309° |
| 2026-05-04 20:27 | 42.40564 | -94.97727 | 35709 ft | 406 kts | 309° |
| 2026-05-04 20:27 | 42.44479 | -95.03235 | 35722 ft | 405 kts | 309° |
| 2026-05-04 20:28 | 42.48386 | -95.08743 | 35723 ft | 404 kts | 309° |
| 2026-05-04 20:28 | 42.52263 | -95.14219 | 35728 ft | 404 kts | 309° |
| 2026-05-04 20:29 | 42.56152 | -95.19721 | 35733 ft | 404 kts | 309° |
| 2026-05-04 20:29 | 42.60044 | -95.25239 | 35734 ft | 403 kts | 309° |
| 2026-05-04 20:30 | 42.63898 | -95.30712 | 35733 ft | 403 kts | 309° |
| 2026-05-04 20:30 | 42.67772 | -95.36224 | 35727 ft | 402 kts | 309° |
| 2026-05-04 20:31 | 42.71634 | -95.41730 | 35748 ft | 401 kts | 309° |
| 2026-05-04 20:31 | 42.75461 | -95.47197 | 35735 ft | 401 kts | 308° |
| 2026-05-04 20:32 | 42.79315 | -95.52714 | 35737 ft | 400 kts | 308° |
| 2026-05-04 20:32 | 42.83124 | -95.58175 | 35740 ft | 400 kts | 308° |
| 2026-05-04 20:33 | 42.86954 | -95.63677 | 35738 ft | 399 kts | 308° |
| 2026-05-04 20:33 | 42.90773 | -95.69176 | 35740 ft | 398 kts | 308° |
| 2026-05-04 20:34 | 42.94585 | -95.74673 | 35735 ft | 398 kts | 308° |
| 2026-05-04 20:34 | 42.98371 | -95.80143 | 35737 ft | 398 kts | 308° |
| 2026-05-04 20:35 | 43.02173 | -95.85648 | 35742 ft | 397 kts | 308° |
| 2026-05-04 20:35 | 43.05967 | -95.91153 | 35742 ft | 397 kts | 308° |
| 2026-05-04 20:36 | 43.09753 | -95.96655 | 35744 ft | 396 kts | 308° |
| 2026-05-04 20:36 | 43.13532 | -96.02158 | 35744 ft | 396 kts | 307° |
| 2026-05-04 20:37 | 43.17283 | -96.07631 | 35745 ft | 396 kts | 307° |
| 2026-05-04 20:37 | 43.21051 | -96.13139 | 35749 ft | 396 kts | 307° |
| 2026-05-04 20:38 | 43.24817 | -96.18655 | 35757 ft | 395 kts | 307° |
| 2026-05-04 20:38 | 43.28573 | -96.24168 | 35763 ft | 395 kts | 307° |
| 2026-05-04 20:39 | 43.32307 | -96.29658 | 35771 ft | 394 kts | 307° |
| 2026-05-04 20:39 | 43.36049 | -96.35170 | 35776 ft | 394 kts | 307° |
| 2026-05-04 20:40 | 43.39789 | -96.40692 | 35783 ft | 394 kts | 307° |
| 2026-05-04 20:40 | 43.43500 | -96.46180 | 35785 ft | 394 kts | 307° |
| 2026-05-04 20:41 | 43.50885 | -96.57134 | 35801 ft | 393 kts | 307° |
| 2026-05-04 20:42 | 43.54591 | -96.62646 | 35802 ft | 393 kts | 307° |
| 2026-05-04 20:42 | 43.58298 | -96.68169 | 35806 ft | 393 kts | 307° |
| 2026-05-04 20:43 | 43.62019 | -96.73722 | 35806 ft | 392 kts | 307° |
| 2026-05-04 20:43 | 43.65560 | -96.79340 | 35805 ft | 386 kts | 300° |
| 2026-05-04 20:44 | 43.68762 | -96.85351 | 35804 ft | 388 kts | 301° |
| 2026-05-04 20:44 | 43.70386 | -96.88342 | 35949 ft | 388 kts | 302° |
| 2026-05-04 20:44 | 43.72014 | -96.91327 | 36211 ft | 388 kts | 302° |
| 2026-05-04 20:45 | 43.73640 | -96.94307 | 36461 ft | 388 kts | 302° |
| 2026-05-04 20:45 | 43.75262 | -96.97283 | 36695 ft | 388 kts | 301° |
| 2026-05-04 20:45 | 43.76886 | -97.00262 | 36937 ft | 387 kts | 301° |
| 2026-05-04 20:45 | 43.78509 | -97.03244 | 37173 ft | 387 kts | 301° |
| 2026-05-04 20:46 | 43.80106 | -97.06181 | 37415 ft | 386 kts | 301° |
| 2026-05-04 20:46 | 43.81725 | -97.09160 | 37649 ft | 385 kts | 301° |
| 2026-05-04 20:46 | 43.83333 | -97.12122 | 37816 ft | 385 kts | 301° |
| 2026-05-04 20:46 | 43.84942 | -97.15090 | 37819 ft | 385 kts | 301° |
| 2026-05-04 20:47 | 43.88148 | -97.21012 | 37815 ft | 383 kts | 301° |
| 2026-05-04 20:47 | 43.91328 | -97.26898 | 37816 ft | 383 kts | 301° |
| 2026-05-04 20:48 | 43.94525 | -97.32826 | 37813 ft | 383 kts | 301° |
| 2026-05-04 20:48 | 43.97699 | -97.38726 | 37819 ft | 383 kts | 301° |
| 2026-05-04 20:49 | 44.00896 | -97.44679 | 37818 ft | 384 kts | 301° |
| 2026-05-04 20:49 | 44.04089 | -97.50638 | 37824 ft | 384 kts | 301° |
| 2026-05-04 20:50 | 44.07261 | -97.56568 | 37822 ft | 384 kts | 301° |
| 2026-05-04 20:50 | 44.10453 | -97.62549 | 37827 ft | 384 kts | 301° |
| 2026-05-04 20:51 | 44.13633 | -97.68521 | 37822 ft | 384 kts | 301° |
| 2026-05-04 20:51 | 44.16795 | -97.74469 | 37828 ft | 384 kts | 301° |
| 2026-05-04 20:52 | 44.19978 | -97.80469 | 37829 ft | 384 kts | 301° |
| 2026-05-04 20:52 | 44.23155 | -97.86472 | 37838 ft | 384 kts | 301° |
| 2026-05-04 20:53 | 44.26332 | -97.92485 | 37843 ft | 384 kts | 301° |
| 2026-05-04 20:53 | 44.29484 | -97.98466 | 37847 ft | 385 kts | 301° |
| 2026-05-04 20:54 | 44.32655 | -98.04492 | 37848 ft | 385 kts | 301° |
| 2026-05-04 20:54 | 44.35825 | -98.10531 | 37853 ft | 385 kts | 301° |
| 2026-05-04 20:55 | 44.38973 | -98.16540 | 37855 ft | 385 kts | 301° |
| 2026-05-04 20:55 | 44.42137 | -98.22593 | 37852 ft | 385 kts | 301° |
| 2026-05-04 20:56 | 44.45293 | -98.28643 | 37852 ft | 385 kts | 301° |
| 2026-05-04 20:56 | 44.48427 | -98.34664 | 37849 ft | 384 kts | 301° |
| 2026-05-04 20:57 | 44.51578 | -98.40729 | 37827 ft | 385 kts | 301° |
| 2026-05-04 20:57 | 44.54734 | -98.46816 | 37845 ft | 385 kts | 301° |
| 2026-05-04 20:58 | 44.57859 | -98.52858 | 37842 ft | 385 kts | 301° |
| 2026-05-04 20:58 | 44.61012 | -98.58964 | 37835 ft | 385 kts | 301° |
| 2026-05-04 20:59 | 44.64139 | -98.65033 | 37846 ft | 386 kts | 301° |
| 2026-05-04 20:59 | 44.67280 | -98.71144 | 37840 ft | 386 kts | 301° |
| 2026-05-04 21:00 | 44.70420 | -98.77265 | 37838 ft | 386 kts | 301° |
| 2026-05-04 21:00 | 44.73565 | -98.83409 | 37844 ft | 386 kts | 301° |
| 2026-05-04 21:01 | 44.76705 | -98.89557 | 37834 ft | 386 kts | 301° |
| 2026-05-04 21:01 | 44.79824 | -98.95676 | 37839 ft | 387 kts | 301° |
| 2026-05-04 21:02 | 44.82965 | -99.01851 | 37842 ft | 387 kts | 301° |
| 2026-05-04 21:02 | 44.86085 | -99.07998 | 37840 ft | 387 kts | 301° |
| 2026-05-04 21:03 | 44.89223 | -99.14196 | 37843 ft | 388 kts | 301° |
| 2026-05-04 21:03 | 44.92357 | -99.20397 | 37845 ft | 388 kts | 301° |
| 2026-05-04 21:04 | 44.95474 | -99.26578 | 37840 ft | 388 kts | 301° |
| 2026-05-04 21:04 | 44.98596 | -99.32783 | 37843 ft | 387 kts | 301° |
| 2026-05-04 21:05 | 45.01714 | -99.38993 | 37848 ft | 387 kts | 301° |
| 2026-05-04 21:05 | 45.04836 | -99.45225 | 37843 ft | 387 kts | 301° |
| 2026-05-04 21:06 | 45.07951 | -99.51457 | 37842 ft | 388 kts | 301° |
| 2026-05-04 21:06 | 45.11053 | -99.57675 | 37839 ft | 388 kts | 301° |
| 2026-05-04 21:07 | 45.14169 | -99.63936 | 37838 ft | 389 kts | 301° |
| 2026-05-04 21:07 | 45.17292 | -99.70223 | 37841 ft | 389 kts | 301° |
| 2026-05-04 21:08 | 45.20391 | -99.76477 | 37840 ft | 390 kts | 301° |
| 2026-05-04 21:08 | 45.23507 | -99.82779 | 37844 ft | 390 kts | 301° |
| 2026-05-04 21:09 | 45.26620 | -99.89089 | 37841 ft | 390 kts | 301° |
| 2026-05-04 21:09 | 45.29739 | -99.95424 | 37832 ft | 391 kts | 301° |
| 2026-05-04 21:10 | 45.32833 | -100.01724 | 37832 ft | 391 kts | 301° |
| 2026-05-04 21:10 | 45.35946 | -100.08076 | 37830 ft | 392 kts | 301° |
| 2026-05-04 21:11 | 45.39061 | -100.14444 | 37831 ft | 392 kts | 301° |
| 2026-05-04 21:11 | 45.41652 | -100.19755 | 37840 ft | 392 kts | 301° |
| 2026-05-04 21:12 | 45.44771 | -100.26159 | 37847 ft | 393 kts | 301° |
| 2026-05-04 21:12 | 45.47866 | -100.32529 | 37846 ft | 393 kts | 301° |
| 2026-05-04 21:13 | 45.50980 | -100.38953 | 37842 ft | 394 kts | 301° |
| 2026-05-04 21:13 | 45.54101 | -100.45404 | 37847 ft | 394 kts | 301° |
| 2026-05-04 21:14 | 45.57195 | -100.51815 | 37842 ft | 394 kts | 301° |
| 2026-05-04 21:14 | 45.60309 | -100.58284 | 37841 ft | 395 kts | 301° |
| 2026-05-04 21:15 | 45.63424 | -100.64765 | 37843 ft | 395 kts | 301° |
| 2026-05-04 21:15 | 45.66517 | -100.71220 | 37845 ft | 396 kts | 301° |
| 2026-05-04 21:16 | 45.69629 | -100.77726 | 37844 ft | 396 kts | 301° |
| 2026-05-04 21:16 | 45.72741 | -100.84248 | 37852 ft | 396 kts | 301° |
| 2026-05-04 21:17 | 45.75850 | -100.90779 | 37857 ft | 396 kts | 301° |
| 2026-05-04 21:17 | 45.78936 | -100.97278 | 37859 ft | 396 kts | 301° |
| 2026-05-04 21:18 | 45.82042 | -101.03833 | 37859 ft | 397 kts | 301° |
| 2026-05-04 21:18 | 45.85122 | -101.10347 | 37866 ft | 397 kts | 301° |
| 2026-05-04 21:19 | 45.88218 | -101.16912 | 37870 ft | 397 kts | 301° |
| 2026-05-04 21:19 | 45.91315 | -101.23493 | 37874 ft | 397 kts | 301° |
| 2026-05-04 21:20 | 45.94402 | -101.30070 | 37882 ft | 397 kts | 301° |
| 2026-05-04 21:20 | 45.97467 | -101.36614 | 37878 ft | 397 kts | 301° |
| 2026-05-04 21:21 | 46.00554 | -101.43221 | 37882 ft | 397 kts | 301° |
| 2026-05-04 21:21 | 46.03640 | -101.49841 | 37884 ft | 398 kts | 301° |
| 2026-05-04 21:22 | 46.06708 | -101.56437 | 37881 ft | 398 kts | 301° |
| 2026-05-04 21:22 | 46.09789 | -101.63077 | 37881 ft | 398 kts | 301° |
| 2026-05-04 21:23 | 46.12872 | -101.69739 | 37887 ft | 399 kts | 301° |
| 2026-05-04 21:23 | 46.15932 | -101.76364 | 37883 ft | 399 kts | 301° |
| 2026-05-04 21:24 | 46.19008 | -101.83041 | 37886 ft | 399 kts | 301° |
| 2026-05-04 21:24 | 46.22085 | -101.89736 | 37891 ft | 399 kts | 301° |
| 2026-05-04 21:25 | 46.25150 | -101.96422 | 37891 ft | 399 kts | 301° |
| 2026-05-04 21:25 | 46.28197 | -102.03084 | 37891 ft | 399 kts | 301° |
| 2026-05-04 21:26 | 46.31263 | -102.09803 | 37889 ft | 399 kts | 301° |
| 2026-05-04 21:26 | 46.34323 | -102.16524 | 37892 ft | 399 kts | 301° |
| 2026-05-04 21:27 | 46.37379 | -102.23255 | 37893 ft | 400 kts | 301° |
| 2026-05-04 21:27 | 46.40418 | -102.29962 | 37890 ft | 400 kts | 301° |
| 2026-05-04 21:28 | 46.43463 | -102.36701 | 37889 ft | 400 kts | 301° |
| 2026-05-04 21:28 | 46.46511 | -102.43461 | 37891 ft | 400 kts | 301° |
| 2026-05-04 21:29 | 46.49554 | -102.50227 | 37890 ft | 400 kts | 301° |
| 2026-05-04 21:29 | 46.52572 | -102.56955 | 37886 ft | 399 kts | 301° |
| 2026-05-04 21:30 | 46.55606 | -102.63733 | 37884 ft | 400 kts | 301° |
| 2026-05-04 21:30 | 46.58637 | -102.70521 | 37882 ft | 400 kts | 301° |
| 2026-05-04 21:31 | 46.63162 | -102.80686 | 37883 ft | 400 kts | 301° |
| 2026-05-04 21:32 | 46.66191 | -102.87513 | 37881 ft | 401 kts | 301° |
| 2026-05-04 21:32 | 46.69197 | -102.94302 | 37883 ft | 401 kts | 301° |
| 2026-05-04 21:33 | 46.72219 | -103.01147 | 37883 ft | 401 kts | 301° |
| 2026-05-04 21:33 | 46.75240 | -103.08005 | 37889 ft | 402 kts | 301° |
| 2026-05-04 21:34 | 46.78258 | -103.14874 | 37886 ft | 402 kts | 301° |
| 2026-05-04 21:34 | 46.81276 | -103.21760 | 37896 ft | 403 kts | 301° |
| 2026-05-04 21:35 | 46.84274 | -103.28616 | 37903 ft | 403 kts | 302° |
| 2026-05-04 21:35 | 46.87289 | -103.35530 | 37913 ft | 403 kts | 302° |
| 2026-05-04 21:36 | 46.90305 | -103.42463 | 37912 ft | 403 kts | 302° |
| 2026-05-04 21:36 | 46.93304 | -103.49373 | 37916 ft | 404 kts | 302° |
| 2026-05-04 21:37 | 46.96315 | -103.56328 | 37913 ft | 405 kts | 302° |
| 2026-05-04 21:37 | 46.99311 | -103.63268 | 37923 ft | 405 kts | 302° |
| 2026-05-04 21:38 | 47.02317 | -103.70247 | 37923 ft | 405 kts | 302° |
| 2026-05-04 21:38 | 47.05326 | -103.77251 | 37932 ft | 405 kts | 302° |
| 2026-05-04 21:39 | 47.08313 | -103.84222 | 37931 ft | 405 kts | 302° |
| 2026-05-04 21:39 | 47.11311 | -103.91237 | 37932 ft | 406 kts | 302° |
| 2026-05-04 21:40 | 47.14312 | -103.98276 | 37940 ft | 406 kts | 302° |
| 2026-05-04 21:40 | 47.17290 | -104.05278 | 37944 ft | 406 kts | 302° |
| 2026-05-04 21:41 | 47.20279 | -104.12327 | 37951 ft | 405 kts | 302° |
| 2026-05-04 21:41 | 47.23263 | -104.19381 | 37945 ft | 405 kts | 302° |
| 2026-05-04 21:42 | 47.26239 | -104.26431 | 37945 ft | 405 kts | 302° |
| 2026-05-04 21:42 | 47.29193 | -104.33450 | 37949 ft | 405 kts | 301° |
| 2026-05-04 21:43 | 47.32161 | -104.40520 | 37944 ft | 405 kts | 301° |
| 2026-05-04 21:43 | 47.35125 | -104.47600 | 37942 ft | 405 kts | 301° |
| 2026-05-04 21:44 | 47.38064 | -104.54638 | 37946 ft | 406 kts | 301° |
| 2026-05-04 21:44 | 47.41025 | -104.61747 | 37946 ft | 406 kts | 301° |
| 2026-05-04 21:45 | 47.43984 | -104.68868 | 37948 ft | 406 kts | 301° |
| 2026-05-04 21:45 | 47.46941 | -104.76006 | 37954 ft | 407 kts | 301° |
| 2026-05-04 21:46 | 47.49883 | -104.83123 | 37959 ft | 408 kts | 301° |
| 2026-05-04 21:46 | 47.52844 | -104.90307 | 37956 ft | 408 kts | 301° |
| 2026-05-04 21:47 | 47.55786 | -104.97462 | 37967 ft | 409 kts | 301° |
| 2026-05-04 21:47 | 47.58744 | -105.04676 | 37961 ft | 409 kts | 301° |
| 2026-05-04 21:48 | 47.61705 | -105.11917 | 37960 ft | 410 kts | 301° |
| 2026-05-04 21:48 | 47.64642 | -105.19118 | 37959 ft | 410 kts | 302° |
| 2026-05-04 21:49 | 47.67588 | -105.26361 | 37965 ft | 410 kts | 301° |
| 2026-05-04 21:49 | 47.70528 | -105.33608 | 37970 ft | 410 kts | 301° |
| 2026-05-04 21:50 | 47.73449 | -105.40829 | 37972 ft | 410 kts | 301° |
| 2026-05-04 21:50 | 47.76385 | -105.48104 | 37968 ft | 409 kts | 301° |
| 2026-05-04 21:51 | 47.79310 | -105.55374 | 37972 ft | 409 kts | 301° |
| 2026-05-04 21:51 | 47.82214 | -105.62605 | 37975 ft | 409 kts | 301° |
| 2026-05-04 21:52 | 47.85133 | -105.69891 | 37981 ft | 409 kts | 301° |
| 2026-05-04 21:52 | 47.88052 | -105.77195 | 37979 ft | 409 kts | 301° |
| 2026-05-04 21:53 | 47.90962 | -105.84496 | 37981 ft | 410 kts | 301° |
| 2026-05-04 21:53 | 47.93847 | -105.91755 | 37983 ft | 410 kts | 301° |
| 2026-05-04 21:54 | 47.96749 | -105.99073 | 37986 ft | 410 kts | 301° |
| 2026-05-04 21:54 | 47.99654 | -106.06422 | 37989 ft | 410 kts | 301° |
| 2026-05-04 21:55 | 48.02541 | -106.13744 | 37988 ft | 411 kts | 301° |
| 2026-05-04 21:55 | 48.05440 | -106.21112 | 37987 ft | 411 kts | 301° |
| 2026-05-04 21:56 | 48.08334 | -106.28492 | 37979 ft | 411 kts | 301° |
| 2026-05-04 21:56 | 48.11216 | -106.35857 | 37980 ft | 412 kts | 301° |
| 2026-05-04 21:57 | 48.14110 | -106.43275 | 37973 ft | 412 kts | 301° |
| 2026-05-04 21:57 | 48.16994 | -106.50687 | 37966 ft | 412 kts | 301° |
| 2026-05-04 21:58 | 48.19860 | -106.58072 | 37971 ft | 412 kts | 301° |
| 2026-05-04 21:58 | 48.22780 | -106.65493 | 37973 ft | 412 kts | 302° |
| 2026-05-04 21:59 | 48.25743 | -106.72857 | 37967 ft | 412 kts | 302° |
| 2026-05-04 21:59 | 48.28698 | -106.80188 | 37975 ft | 412 kts | 302° |
| 2026-05-04 22:00 | 48.31666 | -106.87572 | 37981 ft | 413 kts | 302° |
| 2026-05-04 22:00 | 48.34634 | -106.94972 | 37987 ft | 413 kts | 302° |
| 2026-05-04 22:01 | 48.37577 | -107.02331 | 38002 ft | 413 kts | 302° |
| 2026-05-04 22:01 | 48.40537 | -107.09756 | 38005 ft | 413 kts | 302° |
| 2026-05-04 22:02 | 48.42990 | -107.15922 | 38013 ft | 413 kts | 302° |
| 2026-05-04 22:02 | 48.45940 | -107.23356 | 38016 ft | 413 kts | 302° |
| 2026-05-04 22:03 | 48.48892 | -107.30818 | 38018 ft | 413 kts | 302° |
| 2026-05-04 22:03 | 48.51817 | -107.38232 | 38021 ft | 413 kts | 302° |
| 2026-05-04 22:04 | 48.54754 | -107.45697 | 38018 ft | 413 kts | 302° |
| 2026-05-04 22:04 | 48.57689 | -107.53176 | 38025 ft | 413 kts | 302° |
| 2026-05-04 22:05 | 48.60601 | -107.60620 | 38025 ft | 413 kts | 302° |
| 2026-05-04 22:05 | 48.63524 | -107.68114 | 38026 ft | 413 kts | 302° |
| 2026-05-04 22:06 | 48.66444 | -107.75617 | 38027 ft | 413 kts | 302° |
| 2026-05-04 22:06 | 48.69360 | -107.83135 | 38015 ft | 413 kts | 302° |
| 2026-05-04 22:07 | 48.72266 | -107.90646 | 38019 ft | 413 kts | 302° |
| 2026-05-04 22:07 | 48.75150 | -107.98125 | 38015 ft | 413 kts | 302° |
| 2026-05-04 22:08 | 48.78047 | -108.05652 | 38019 ft | 413 kts | 302° |
| 2026-05-04 22:08 | 48.80932 | -108.13176 | 38013 ft | 412 kts | 302° |
| 2026-05-04 22:09 | 48.83819 | -108.20725 | 38016 ft | 412 kts | 302° |
| 2026-05-04 22:09 | 48.86675 | -108.28212 | 38013 ft | 412 kts | 302° |
| 2026-05-04 22:10 | 48.89542 | -108.35752 | 38016 ft | 411 kts | 302° |
| 2026-05-04 22:10 | 48.92401 | -108.43291 | 38010 ft | 411 kts | 302° |
| 2026-05-04 22:11 | 48.95232 | -108.50776 | 38011 ft | 410 kts | 302° |
| 2026-05-04 22:11 | 48.98075 | -108.58317 | 38013 ft | 410 kts | 302° |
| 2026-05-04 22:12 | 49.00895 | -108.65818 | 38015 ft | 409 kts | 302° |
| 2026-05-04 22:12 | 49.03723 | -108.73360 | 38010 ft | 409 kts | 302° |
| 2026-05-04 22:13 | 49.06540 | -108.80895 | 38000 ft | 408 kts | 302° |
| 2026-05-04 22:13 | 49.09351 | -108.88438 | 38008 ft | 407 kts | 302° |
| 2026-05-04 22:14 | 49.12131 | -108.95916 | 38014 ft | 407 kts | 302° |
| 2026-05-04 22:14 | 49.14920 | -109.03442 | 38001 ft | 406 kts | 302° |
| 2026-05-04 22:15 | 49.17705 | -109.10977 | 38001 ft | 406 kts | 302° |
| 2026-05-04 22:15 | 49.20476 | -109.18499 | 38019 ft | 406 kts | 302° |
| 2026-05-04 22:16 | 49.23224 | -109.25977 | 38016 ft | 405 kts | 302° |
| 2026-05-04 22:16 | 49.25987 | -109.33519 | 38013 ft | 406 kts | 302° |
| 2026-05-04 22:17 | 49.28733 | -109.41036 | 38023 ft | 406 kts | 302° |
| 2026-05-04 22:17 | 49.31486 | -109.48592 | 38019 ft | 406 kts | 302° |
| 2026-05-04 22:18 | 49.34235 | -109.56163 | 38032 ft | 406 kts | 302° |
| 2026-05-04 22:18 | 49.36976 | -109.63731 | 38029 ft | 406 kts | 302° |
| 2026-05-04 22:19 | 49.39714 | -109.71309 | 38029 ft | 405 kts | 302° |
| 2026-05-04 22:19 | 49.42434 | -109.78856 | 38032 ft | 406 kts | 302° |
| 2026-05-04 22:20 | 49.45169 | -109.86467 | 38040 ft | 407 kts | 302° |
| 2026-05-04 22:20 | 49.47889 | -109.94055 | 38039 ft | 407 kts | 302° |
| 2026-05-04 22:21 | 49.50656 | -110.01689 | 38049 ft | 408 kts | 303° |
| 2026-05-04 22:21 | 49.53459 | -110.09245 | 38044 ft | 408 kts | 302° |
| 2026-05-04 22:22 | 49.56275 | -110.16862 | 38055 ft | 409 kts | 302° |
| 2026-05-04 22:22 | 49.59083 | -110.24484 | 38052 ft | 408 kts | 302° |
| 2026-05-04 22:23 | 49.61887 | -110.32114 | 38061 ft | 408 kts | 302° |
| 2026-05-04 22:23 | 49.64684 | -110.39750 | 38064 ft | 408 kts | 302° |
| 2026-05-04 22:24 | 49.67459 | -110.47345 | 38065 ft | 408 kts | 302° |
| 2026-05-04 22:24 | 49.70244 | -110.54992 | 38068 ft | 408 kts | 302° |
| 2026-05-04 22:25 | 49.73025 | -110.62648 | 38065 ft | 408 kts | 302° |
| 2026-05-04 22:25 | 49.75781 | -110.70260 | 38075 ft | 407 kts | 302° |
| 2026-05-04 22:26 | 49.78544 | -110.77913 | 38072 ft | 407 kts | 302° |
| 2026-05-04 22:26 | 49.81302 | -110.85577 | 38066 ft | 407 kts | 302° |
| 2026-05-04 22:27 | 49.84054 | -110.93243 | 38068 ft | 407 kts | 302° |
| 2026-05-04 22:27 | 49.86798 | -111.00913 | 38062 ft | 407 kts | 302° |
| 2026-05-04 22:28 | 49.89525 | -111.08558 | 38067 ft | 407 kts | 302° |
| 2026-05-04 22:28 | 49.92258 | -111.16239 | 38069 ft | 406 kts | 302° |
| 2026-05-04 22:29 | 49.94988 | -111.23933 | 38076 ft | 406 kts | 302° |
| 2026-05-04 22:29 | 49.97699 | -111.31563 | 38078 ft | 406 kts | 303° |
| 2026-05-04 22:30 | 50.00483 | -111.39200 | 38078 ft | 405 kts | 303° |
| 2026-05-04 22:30 | 50.03264 | -111.46865 | 38077 ft | 405 kts | 303° |
| 2026-05-04 22:31 | 50.06018 | -111.54480 | 38077 ft | 406 kts | 303° |
| 2026-05-04 22:31 | 50.08778 | -111.62134 | 38073 ft | 405 kts | 303° |
| 2026-05-04 22:32 | 50.11521 | -111.69764 | 38072 ft | 405 kts | 303° |
| 2026-05-04 22:32 | 50.14277 | -111.77450 | 38070 ft | 405 kts | 303° |
| 2026-05-04 22:32 | 50.15646 | -111.81280 | 37468 ft | 404 kts | 303° |
| 2026-05-04 22:33 | 50.17012 | -111.85102 | 36550 ft | 408 kts | 303° |
| 2026-05-04 22:33 | 50.18381 | -111.88942 | 36067 ft | 401 kts | 304° |
| 2026-05-04 22:33 | 50.19749 | -111.92782 | 35217 ft | 403 kts | 304° |
| 2026-05-04 22:33 | 50.21099 | -111.96582 | 34708 ft | 398 kts | 304° |
| 2026-05-04 22:34 | 50.22428 | -112.00326 | 33909 ft | 399 kts | 304° |
| 2026-05-04 22:34 | 50.23760 | -112.04086 | 33133 ft | 396 kts | 304° |
| 2026-05-04 22:34 | 50.25110 | -112.07900 | 32060 ft | 402 kts | 304° |
| 2026-05-04 22:34 | 50.26454 | -112.11704 | 31352 ft | 399 kts | 303° |
| 2026-05-04 22:35 | 50.27794 | -112.15499 | 30587 ft | 398 kts | 303° |
| 2026-05-04 22:35 | 50.29127 | -112.19282 | 29936 ft | 394 kts | 303° |
| 2026-05-04 22:35 | 50.30444 | -112.23027 | 29278 ft | 389 kts | 303° |
| 2026-05-04 22:35 | 50.31723 | -112.26666 | 28692 ft | 384 kts | 303° |
| 2026-05-04 22:36 | 50.33003 | -112.30313 | 28116 ft | 379 kts | 303° |
| 2026-05-04 22:36 | 50.34263 | -112.33909 | 27538 ft | 375 kts | 303° |
| 2026-05-04 22:36 | 50.35510 | -112.37476 | 26988 ft | 371 kts | 303° |
| 2026-05-04 22:36 | 50.36742 | -112.41001 | 26413 ft | 367 kts | 303° |
| 2026-05-04 22:37 | 50.37964 | -112.44503 | 25861 ft | 364 kts | 303° |
| 2026-05-04 22:37 | 50.39175 | -112.47978 | 25297 ft | 362 kts | 302° |
| 2026-05-04 22:37 | 50.40378 | -112.51435 | 24749 ft | 360 kts | 302° |
| 2026-05-04 22:37 | 50.41573 | -112.54875 | 24209 ft | 358 kts | 302° |
| 2026-05-04 22:38 | 50.42748 | -112.58261 | 23661 ft | 356 kts | 302° |
| 2026-05-04 22:38 | 50.43928 | -112.61668 | 23022 ft | 355 kts | 302° |
| 2026-05-04 22:38 | 50.45104 | -112.65066 | 22454 ft | 352 kts | 302° |
| 2026-05-04 22:38 | 50.46270 | -112.68438 | 21918 ft | 349 kts | 302° |
| 2026-05-04 22:39 | 50.47420 | -112.71770 | 21399 ft | 346 kts | 302° |
| 2026-05-04 22:39 | 50.48564 | -112.75087 | 20867 ft | 344 kts | 302° |
| 2026-05-04 22:39 | 50.49695 | -112.78375 | 20356 ft | 341 kts | 302° |
| 2026-05-04 22:39 | 50.50822 | -112.81651 | 19857 ft | 339 kts | 302° |
| 2026-05-04 22:40 | 50.51941 | -112.84910 | 19355 ft | 338 kts | 302° |
| 2026-05-04 22:40 | 50.53053 | -112.88152 | 18866 ft | 337 kts | 302° |
| 2026-05-04 22:40 | 50.54160 | -112.91386 | 18371 ft | 335 kts | 302° |
| 2026-05-04 22:40 | 50.55248 | -112.94569 | 17853 ft | 334 kts | 301° |
| 2026-05-04 22:41 | 50.56344 | -112.97777 | 17350 ft | 331 kts | 301° |
| 2026-05-04 22:41 | 50.57429 | -113.00956 | 16863 ft | 329 kts | 301° |
| 2026-05-04 22:41 | 50.58508 | -113.04123 | 16377 ft | 327 kts | 301° |
| 2026-05-04 22:41 | 50.59579 | -113.07271 | 15914 ft | 325 kts | 300° |
| 2026-05-04 22:42 | 50.60650 | -113.10420 | 15521 ft | 322 kts | 300° |
| 2026-05-04 22:42 | 50.61687 | -113.13473 | 15346 ft | 312 kts | 300° |
| 2026-05-04 22:42 | 50.62683 | -113.16412 | 15156 ft | 304 kts | 300° |
| 2026-05-04 22:42 | 50.63664 | -113.19306 | 14982 ft | 295 kts | 300° |
| 2026-05-04 22:43 | 50.64617 | -113.22119 | 14825 ft | 286 kts | 300° |
| 2026-05-04 22:43 | 50.65540 | -113.24847 | 14678 ft | 277 kts | 300° |
| 2026-05-04 22:43 | 50.66436 | -113.27500 | 14536 ft | 268 kts | 300° |
| 2026-05-04 22:43 | 50.67292 | -113.30033 | 14399 ft | 260 kts | 300° |
| 2026-05-04 22:44 | 50.68133 | -113.32528 | 14266 ft | 253 kts | 299° |
| 2026-05-04 22:44 | 50.68949 | -113.34948 | 14105 ft | 245 kts | 299° |
| 2026-05-04 22:44 | 50.69841 | -113.37187 | 13881 ft | 244 kts | 313° |
| 2026-05-04 22:44 | 50.71113 | -113.39005 | 13581 ft | 248 kts | 317° |
| 2026-05-04 22:45 | 50.72421 | -113.40829 | 13298 ft | 252 kts | 317° |
| 2026-05-04 22:45 | 50.75077 | -113.44485 | 12720 ft | 255 kts | 318° |
| 2026-05-04 22:45 | 50.76422 | -113.46325 | 12416 ft | 255 kts | 319° |
| 2026-05-04 22:46 | 50.77747 | -113.48134 | 12139 ft | 254 kts | 319° |
| 2026-05-04 22:46 | 50.79084 | -113.49958 | 11836 ft | 253 kts | 319° |
| 2026-05-04 22:46 | 50.80413 | -113.51770 | 11557 ft | 252 kts | 319° |
| 2026-05-04 22:46 | 50.81736 | -113.53576 | 11262 ft | 251 kts | 319° |
| 2026-05-04 22:47 | 50.82167 | -113.54165 | 11157 ft | 250 kts | 319° |
| 2026-05-04 22:47 | 50.82858 | -113.55110 | 11017 ft | 249 kts | 319° |
| 2026-05-04 22:47 | 50.84166 | -113.56899 | 10737 ft | 247 kts | 320° |
| 2026-05-04 22:47 | 50.85448 | -113.58652 | 10465 ft | 247 kts | 320° |
| 2026-05-04 22:48 | 50.86746 | -113.60430 | 10168 ft | 246 kts | 320° |
| 2026-05-04 22:48 | 50.88036 | -113.62198 | 9864 ft | 244 kts | 320° |
| 2026-05-04 22:48 | 50.89317 | -113.63954 | 9580 ft | 243 kts | 320° |
| 2026-05-04 22:48 | 50.90592 | -113.65703 | 9295 ft | 241 kts | 321° |
| 2026-05-04 22:49 | 50.91850 | -113.67470 | 9034 ft | 240 kts | 315° |
| 2026-05-04 22:49 | 50.92662 | -113.69765 | 8803 ft | 243 kts | 287° |
| 2026-05-04 22:49 | 50.92772 | -113.72395 | 8662 ft | 240 kts | 275° |
| 2026-05-04 22:49 | 50.92784 | -113.75037 | 8570 ft | 242 kts | 275° |
| 2026-05-04 22:50 | 50.92790 | -113.77708 | 8409 ft | 239 kts | 275° |
| 2026-05-04 22:50 | 50.92791 | -113.79666 | 8295 ft | 234 kts | 275° |
| 2026-05-04 22:50 | 50.92789 | -113.81356 | 8212 ft | 229 kts | 275° |
| 2026-05-04 22:50 | 50.92783 | -113.84709 | 8018 ft | 229 kts | 275° |
| 2026-05-04 22:51 | 50.92789 | -113.87240 | 7833 ft | 229 kts | 275° |
| 2026-05-04 22:51 | 50.92792 | -113.88917 | 7731 ft | 228 kts | 275° |
| 2026-05-04 22:51 | 50.92794 | -113.91440 | 7571 ft | 229 kts | 275° |
| 2026-05-04 22:51 | 50.92797 | -113.93944 | 7418 ft | 228 kts | 275° |
| 2026-05-04 22:52 | 50.93109 | -113.96326 | 7206 ft | 214 kts | 302° |
| 2026-05-04 22:52 | 50.94068 | -113.97961 | 7029 ft | 197 kts | 331° |
| 2026-05-04 22:52 | 50.95311 | -113.98766 | 6796 ft | 190 kts | 346° |
| 2026-05-04 22:52 | 50.96586 | -113.99057 | 6556 ft | 184 kts | 357° |
| 2026-05-04 22:53 | 50.97847 | -113.99072 | 6325 ft | 179 kts | 359° |
| 2026-05-04 22:53 | 50.99066 | -113.99057 | 6116 ft | 170 kts | 359° |
| 2026-05-04 22:53 | 51.00226 | -113.99053 | 5865 ft | 165 kts | 359° |
| 2026-05-04 22:53 | 51.01365 | -113.99052 | 5655 ft | 162 kts | 359° |
| 2026-05-04 22:54 | 51.02492 | -113.99049 | 5458 ft | 162 kts | 359° |
| 2026-05-04 22:54 | 51.03615 | -113.99048 | 5223 ft | 159 kts | 359° |
| 2026-05-04 22:54 | 51.04701 | -113.99045 | 5059 ft | 154 kts | 359° |
| 2026-05-04 22:54 | 51.05746 | -113.99043 | 4859 ft | 149 kts | 359° |
| 2026-05-04 22:55 | 51.06763 | -113.99044 | 4599 ft | 144 kts | 359° |
| 2026-05-04 22:55 | 51.07755 | -113.99042 | 4379 ft | 138 kts | 1° |
| 2026-05-04 22:55 | 51.08716 | -113.99038 | 4178 ft | 140 kts | 0° |
| 2026-05-04 22:55 | 51.09683 | -113.99045 | 3955 ft | 136 kts | 2° |
| 2026-05-04 22:56 | 51.10613 | -113.99055 | 3729 ft | 136 kts | 2° |
| 2026-05-04 22:56 | 51.11516 | -113.99039 | 3578 ft | 119 kts | 2° |
| 2026-05-04 22:56 | 51.12194 | -113.99034 | 3573 ft | 69 kts | 359° |
| 2026-05-04 22:56 | 51.12519 | -113.99036 | 3570 ft | 39 kts | 360° |
| 2026-05-04 22:57 | 51.12773 | -113.99036 | 3575 ft | 36 kts | 358° |
| 2026-05-04 22:57 | 51.13005 | -113.99110 | 3576 ft | 28 kts | 333° |
| 2026-05-04 22:57 | 51.13149 | -113.99245 | 3565 ft | 18 kts | 315° |
| 2026-05-04 22:57 | 51.13159 | -113.99379 | 3564 ft | 13 kts | 267° |
| 2026-05-04 22:58 | 51.13160 | -113.99541 | 3559 ft | 16 kts | 271° |
| 2026-05-04 22:58 | 51.13159 | -113.99725 | 3562 ft | 17 kts | 268° |
| 2026-05-04 22:58 | 51.13161 | -113.99881 | 3562 ft | 12 kts | 272° |
| 2026-05-04 22:58 | 51.13162 | -113.99902 | 3562 ft | 0 kts | 271° |
| 2026-05-04 22:59 | 51.13162 | -113.99913 | 3562 ft | 5 kts | 271° |
| 2026-05-04 22:59 | 51.13156 | -113.99969 | 3559 ft | 1 kts | 225° |
| 2026-05-04 22:59 | 51.13130 | -113.99975 | 3561 ft | 9 kts | 176° |
| 2026-05-04 22:59 | 51.13069 | -113.99955 | 3562 ft | 0 kts | 166° |
| 2026-05-04 23:00 | 51.13059 | -113.99951 | 3556 ft | 3 kts | 167° |
| 2026-05-04 23:00 | 51.13057 | -113.99951 | 3557 ft | 0 kts | 167° |